IRM77 OIIE-EDDM
Flight info
| Callsign | IRM77 |
|---|---|
| Flight time | 4h 32m |
| Altitude | 36000 |
| Route | PAROT G208 ZAJ/N0455F280 G208 GETOB/N0478F360 G208 UMH DCT TESVA UL852 ESEPO/N0473F380 UL852 NEGEM DCT TEGRI DCT ARSIN DCT SITNI DCT BAGSI DCT MATIG DCT AMADI Q113 NAPSA NAPSA4A |
| Aircraft | A346/H-SDE2E3FGHIJ3J4J5M1RWXY/LB1D1 |
Departure
| Time | 2026-05-09 12:41 |
|---|---|
| Airport | Imam Khomeini International Airport (OIIE) |
Arrival
| Time | 2026-05-09 17:13 |
|---|---|
| Airport | Munich Airport (EDDM) |
| Time | Latitude | Longitude | Altitude | Speed | Heading |
|---|---|---|---|---|---|
| 2026-05-09 12:02 | 35.41018 | 51.15599 | 3276 ft | 0 kts | 193° |
| 2026-05-09 12:30 | 35.41050 | 51.15609 | 3275 ft | 2 kts | 194° |
| 2026-05-09 12:31 | 35.41072 | 51.15613 | 3274 ft | 4 kts | 174° |
| 2026-05-09 12:31 | 35.41102 | 51.15583 | 3274 ft | 4 kts | 109° |
| 2026-05-09 12:31 | 35.41110 | 51.15552 | 3274 ft | 4 kts | 107° |
| 2026-05-09 12:32 | 35.41113 | 51.15542 | 3274 ft | 1 kts | 109° |
| 2026-05-09 12:32 | 35.41113 | 51.15539 | 3274 ft | 0 kts | 109° |
| 2026-05-09 12:33 | 35.41114 | 51.15539 | 3274 ft | 0 kts | 109° |
| 2026-05-09 12:35 | 35.41113 | 51.15540 | 3274 ft | 0 kts | 107° |
| 2026-05-09 12:35 | 35.41115 | 51.15548 | 3274 ft | 2 kts | 57° |
| 2026-05-09 12:35 | 35.41139 | 51.15573 | 3276 ft | 6 kts | 29° |
| 2026-05-09 12:36 | 35.41183 | 51.15595 | 3275 ft | 7 kts | 20° |
| 2026-05-09 12:36 | 35.41234 | 51.15617 | 3277 ft | 8 kts | 19° |
| 2026-05-09 12:36 | 35.41265 | 51.15658 | 3276 ft | 7 kts | 81° |
| 2026-05-09 12:36 | 35.41258 | 51.15717 | 3278 ft | 7 kts | 105° |
| 2026-05-09 12:37 | 35.41238 | 51.15793 | 3279 ft | 13 kts | 108° |
| 2026-05-09 12:37 | 35.41207 | 51.15906 | 3278 ft | 15 kts | 108° |
| 2026-05-09 12:37 | 35.41170 | 51.16040 | 3274 ft | 18 kts | 109° |
| 2026-05-09 12:37 | 35.41126 | 51.16197 | 3275 ft | 20 kts | 109° |
| 2026-05-09 12:38 | 35.41091 | 51.16322 | 3268 ft | 14 kts | 109° |
| 2026-05-09 12:38 | 35.41068 | 51.16409 | 3265 ft | 10 kts | 99° |
| 2026-05-09 12:38 | 35.41107 | 51.16489 | 3264 ft | 13 kts | 27° |
| 2026-05-09 12:38 | 35.41196 | 51.16530 | 3265 ft | 14 kts | 18° |
| 2026-05-09 12:39 | 35.41283 | 51.16564 | 3269 ft | 11 kts | 7° |
| 2026-05-09 12:39 | 35.41335 | 51.16512 | 3270 ft | 10 kts | 294° |
| 2026-05-09 12:39 | 35.41338 | 51.16502 | 3272 ft | 2 kts | 291° |
| 2026-05-09 12:39 | 35.41405 | 51.16270 | 3273 ft | 57 kts | 289° |
| 2026-05-09 12:40 | 35.41590 | 51.15603 | 3276 ft | 108 kts | 289° |
| 2026-05-09 12:40 | 35.41886 | 51.14549 | 3296 ft | 151 kts | 289° |
| 2026-05-09 12:40 | 35.42253 | 51.13189 | 3379 ft | 179 kts | 292° |
| 2026-05-09 12:40 | 35.42651 | 51.11724 | 3858 ft | 183 kts | 292° |
| 2026-05-09 12:41 | 35.43115 | 51.10243 | 4387 ft | 188 kts | 292° |
| 2026-05-09 12:41 | 35.43577 | 51.08741 | 5003 ft | 186 kts | 293° |
| 2026-05-09 12:41 | 35.44022 | 51.07255 | 5411 ft | 190 kts | 293° |
| 2026-05-09 12:41 | 35.44499 | 51.05687 | 5649 ft | 203 kts | 292° |
| 2026-05-09 12:42 | 35.45005 | 51.04008 | 5916 ft | 215 kts | 292° |
| 2026-05-09 12:42 | 35.45538 | 51.02244 | 6243 ft | 227 kts | 292° |
| 2026-05-09 12:42 | 35.46100 | 51.00359 | 6500 ft | 243 kts | 292° |
| 2026-05-09 12:42 | 35.46704 | 50.98353 | 6830 ft | 257 kts | 291° |
| 2026-05-09 12:43 | 35.47319 | 50.96304 | 7464 ft | 259 kts | 291° |
| 2026-05-09 12:43 | 35.47939 | 50.94229 | 8179 ft | 259 kts | 290° |
| 2026-05-09 12:43 | 35.48564 | 50.92136 | 8881 ft | 263 kts | 289° |
| 2026-05-09 12:43 | 35.49198 | 50.90007 | 9544 ft | 268 kts | 288° |
| 2026-05-09 12:44 | 35.49838 | 50.87844 | 10209 ft | 271 kts | 288° |
| 2026-05-09 12:44 | 35.50497 | 50.85625 | 10702 ft | 284 kts | 287° |
| 2026-05-09 12:44 | 35.51102 | 50.83244 | 11075 ft | 299 kts | 281° |
| 2026-05-09 12:44 | 35.51449 | 50.80649 | 11398 ft | 316 kts | 273° |
| 2026-05-09 12:45 | 35.51600 | 50.77882 | 11711 ft | 334 kts | 276° |
| 2026-05-09 12:45 | 35.52390 | 50.75100 | 12011 ft | 358 kts | 297° |
| 2026-05-09 12:45 | 35.54057 | 50.72732 | 12513 ft | 376 kts | 316° |
| 2026-05-09 12:45 | 35.56156 | 50.70777 | 13328 ft | 379 kts | 319° |
| 2026-05-09 12:46 | 35.58267 | 50.68796 | 14030 ft | 383 kts | 317° |
| 2026-05-09 12:46 | 35.60339 | 50.66713 | 14657 ft | 386 kts | 315° |
| 2026-05-09 12:46 | 35.62376 | 50.64540 | 15351 ft | 389 kts | 313° |
| 2026-05-09 12:46 | 35.64390 | 50.62302 | 16025 ft | 391 kts | 313° |
| 2026-05-09 12:47 | 35.66404 | 50.60020 | 16692 ft | 394 kts | 312° |
| 2026-05-09 12:47 | 35.68415 | 50.57709 | 17377 ft | 397 kts | 311° |
| 2026-05-09 12:47 | 35.70434 | 50.55370 | 18068 ft | 400 kts | 311° |
| 2026-05-09 12:47 | 35.72460 | 50.53006 | 18670 ft | 403 kts | 311° |
| 2026-05-09 12:48 | 35.74500 | 50.50615 | 19218 ft | 406 kts | 310° |
| 2026-05-09 12:48 | 35.76556 | 50.48199 | 19814 ft | 409 kts | 311° |
| 2026-05-09 12:48 | 35.78619 | 50.45771 | 20389 ft | 411 kts | 311° |
| 2026-05-09 12:48 | 35.80692 | 50.43332 | 20958 ft | 414 kts | 311° |
| 2026-05-09 12:49 | 35.82783 | 50.40869 | 21506 ft | 417 kts | 311° |
| 2026-05-09 12:49 | 35.84862 | 50.38418 | 22052 ft | 419 kts | 311° |
| 2026-05-09 12:49 | 35.86978 | 50.35922 | 22598 ft | 422 kts | 311° |
| 2026-05-09 12:49 | 35.89114 | 50.33401 | 23141 ft | 426 kts | 311° |
| 2026-05-09 12:50 | 35.91264 | 50.30859 | 23668 ft | 429 kts | 310° |
| 2026-05-09 12:50 | 35.93425 | 50.28302 | 24107 ft | 431 kts | 311° |
| 2026-05-09 12:50 | 35.95597 | 50.25731 | 24587 ft | 433 kts | 311° |
| 2026-05-09 12:50 | 35.97782 | 50.23141 | 25069 ft | 435 kts | 311° |
| 2026-05-09 12:51 | 35.99970 | 50.20546 | 25558 ft | 436 kts | 311° |
| 2026-05-09 12:51 | 36.02165 | 50.17939 | 26032 ft | 438 kts | 311° |
| 2026-05-09 12:51 | 36.04368 | 50.15323 | 26511 ft | 440 kts | 311° |
| 2026-05-09 12:51 | 36.06579 | 50.12695 | 26977 ft | 441 kts | 311° |
| 2026-05-09 12:52 | 36.08764 | 50.10096 | 27421 ft | 443 kts | 311° |
| 2026-05-09 12:52 | 36.10993 | 50.07441 | 27859 ft | 445 kts | 311° |
| 2026-05-09 12:52 | 36.13230 | 50.04774 | 28311 ft | 446 kts | 311° |
| 2026-05-09 12:52 | 36.15407 | 50.02038 | 28929 ft | 442 kts | 307° |
| 2026-05-09 12:53 | 36.17376 | 49.99158 | 29651 ft | 435 kts | 303° |
| 2026-05-09 12:53 | 36.19141 | 49.96138 | 30344 ft | 428 kts | 300° |
| 2026-05-09 12:53 | 36.20692 | 49.93015 | 30917 ft | 422 kts | 296° |
| 2026-05-09 12:53 | 36.22038 | 49.89796 | 31411 ft | 419 kts | 292° |
| 2026-05-09 12:54 | 36.23278 | 49.86520 | 31848 ft | 419 kts | 292° |
| 2026-05-09 12:54 | 36.24484 | 49.83285 | 32287 ft | 418 kts | 291° |
| 2026-05-09 12:54 | 36.25705 | 49.79996 | 32753 ft | 418 kts | 291° |
| 2026-05-09 12:54 | 36.26918 | 49.76722 | 33229 ft | 416 kts | 291° |
| 2026-05-09 12:55 | 36.28122 | 49.73465 | 33703 ft | 415 kts | 291° |
| 2026-05-09 12:55 | 36.29324 | 49.70204 | 34137 ft | 414 kts | 291° |
| 2026-05-09 12:55 | 36.30523 | 49.66953 | 34476 ft | 415 kts | 291° |
| 2026-05-09 12:55 | 36.31728 | 49.63684 | 34753 ft | 417 kts | 291° |
| 2026-05-09 12:56 | 36.32935 | 49.60406 | 34985 ft | 419 kts | 291° |
| 2026-05-09 12:56 | 36.34148 | 49.57105 | 35209 ft | 421 kts | 291° |
| 2026-05-09 12:56 | 36.35366 | 49.53789 | 35504 ft | 422 kts | 291° |
| 2026-05-09 12:56 | 36.36586 | 49.50461 | 35764 ft | 423 kts | 291° |
| 2026-05-09 12:57 | 36.37798 | 49.47149 | 35906 ft | 427 kts | 291° |
| 2026-05-09 12:57 | 36.39036 | 49.43764 | 36052 ft | 431 kts | 291° |
| 2026-05-09 12:57 | 36.40281 | 49.40358 | 36145 ft | 432 kts | 290° |
| 2026-05-09 12:58 | 36.42767 | 49.33551 | 36146 ft | 432 kts | 290° |
| 2026-05-09 12:58 | 36.45248 | 49.26739 | 36155 ft | 432 kts | 290° |
| 2026-05-09 12:59 | 36.47722 | 49.19932 | 36151 ft | 432 kts | 290° |
| 2026-05-09 12:59 | 36.50179 | 49.13156 | 36152 ft | 431 kts | 290° |
| 2026-05-09 13:00 | 36.52660 | 49.06298 | 36171 ft | 431 kts | 291° |
| 2026-05-09 13:00 | 36.55098 | 48.99544 | 36148 ft | 430 kts | 290° |
| 2026-05-09 13:01 | 36.57553 | 48.92737 | 36154 ft | 430 kts | 290° |
| 2026-05-09 13:01 | 36.60001 | 48.85922 | 36143 ft | 430 kts | 290° |
| 2026-05-09 13:02 | 36.62426 | 48.79146 | 36146 ft | 430 kts | 290° |
| 2026-05-09 13:02 | 36.64857 | 48.72333 | 36139 ft | 429 kts | 290° |
| 2026-05-09 13:03 | 36.67278 | 48.65531 | 36135 ft | 429 kts | 290° |
| 2026-05-09 13:03 | 36.69697 | 48.58722 | 36156 ft | 429 kts | 290° |
| 2026-05-09 13:04 | 36.72108 | 48.51919 | 36145 ft | 428 kts | 290° |
| 2026-05-09 13:04 | 36.74511 | 48.45125 | 36142 ft | 428 kts | 290° |
| 2026-05-09 13:05 | 36.76913 | 48.38314 | 36132 ft | 428 kts | 290° |
| 2026-05-09 13:05 | 36.79105 | 48.31418 | 36150 ft | 426 kts | 288° |
| 2026-05-09 13:06 | 36.81147 | 48.24458 | 36139 ft | 426 kts | 287° |
| 2026-05-09 13:06 | 36.83178 | 48.17507 | 36140 ft | 426 kts | 287° |
| 2026-05-09 13:07 | 36.85205 | 48.10551 | 36127 ft | 426 kts | 287° |
| 2026-05-09 13:07 | 36.87228 | 48.03590 | 36113 ft | 426 kts | 287° |
| 2026-05-09 13:08 | 36.89244 | 47.96639 | 36106 ft | 426 kts | 287° |
| 2026-05-09 13:08 | 36.91247 | 47.89710 | 36097 ft | 426 kts | 287° |
| 2026-05-09 13:09 | 36.93255 | 47.82743 | 36101 ft | 425 kts | 287° |
| 2026-05-09 13:09 | 36.95257 | 47.75780 | 36088 ft | 425 kts | 288° |
| 2026-05-09 13:10 | 36.97262 | 47.68800 | 36093 ft | 425 kts | 288° |
| 2026-05-09 13:10 | 36.99259 | 47.61830 | 36091 ft | 425 kts | 287° |
| 2026-05-09 13:11 | 37.01247 | 47.54861 | 36100 ft | 424 kts | 288° |
| 2026-05-09 13:11 | 37.03230 | 47.47903 | 36101 ft | 424 kts | 288° |
| 2026-05-09 13:12 | 37.05208 | 47.40942 | 36117 ft | 424 kts | 288° |
| 2026-05-09 13:12 | 37.07181 | 47.33981 | 36116 ft | 423 kts | 288° |
| 2026-05-09 13:13 | 37.09151 | 47.27027 | 36126 ft | 422 kts | 288° |
| 2026-05-09 13:13 | 37.11119 | 47.20082 | 36136 ft | 422 kts | 288° |
| 2026-05-09 13:14 | 37.13066 | 47.13191 | 36133 ft | 422 kts | 288° |
| 2026-05-09 13:16 | 37.20861 | 46.85399 | 36149 ft | 423 kts | 288° |
| 2026-05-09 13:16 | 37.22806 | 46.78415 | 36148 ft | 423 kts | 288° |
| 2026-05-09 13:17 | 37.24749 | 46.71427 | 36147 ft | 423 kts | 288° |
| 2026-05-09 13:17 | 37.26690 | 46.64432 | 36151 ft | 423 kts | 288° |
| 2026-05-09 13:18 | 37.28623 | 46.57441 | 36150 ft | 423 kts | 288° |
| 2026-05-09 13:18 | 37.30541 | 46.50486 | 36154 ft | 422 kts | 288° |
| 2026-05-09 13:19 | 37.32463 | 46.43502 | 36137 ft | 422 kts | 288° |
| 2026-05-09 13:19 | 37.34070 | 46.37651 | 36131 ft | 422 kts | 288° |
| 2026-05-09 13:20 | 37.35972 | 46.30708 | 36119 ft | 422 kts | 288° |
| 2026-05-09 13:20 | 37.37883 | 46.23709 | 36114 ft | 423 kts | 288° |
| 2026-05-09 13:21 | 37.39794 | 46.16697 | 36112 ft | 423 kts | 288° |
| 2026-05-09 13:21 | 37.41700 | 46.09684 | 36110 ft | 423 kts | 288° |
| 2026-05-09 13:22 | 37.43600 | 46.02669 | 36110 ft | 424 kts | 288° |
| 2026-05-09 13:22 | 37.45503 | 45.95630 | 36117 ft | 425 kts | 288° |
| 2026-05-09 13:23 | 37.50240 | 45.78026 | 36135 ft | 425 kts | 288° |
| 2026-05-09 13:24 | 37.52131 | 45.70957 | 36128 ft | 426 kts | 288° |
| 2026-05-09 13:24 | 37.54026 | 45.63877 | 36135 ft | 426 kts | 288° |
| 2026-05-09 13:25 | 37.55924 | 45.56785 | 36134 ft | 426 kts | 288° |
| 2026-05-09 13:26 | 37.58757 | 45.46152 | 36126 ft | 426 kts | 288° |
| 2026-05-09 13:26 | 37.60643 | 45.39052 | 36136 ft | 426 kts | 288° |
| 2026-05-09 13:27 | 37.62524 | 45.31954 | 36142 ft | 426 kts | 288° |
| 2026-05-09 13:27 | 37.64390 | 45.24892 | 36143 ft | 426 kts | 287° |
| 2026-05-09 13:28 | 37.66400 | 45.17839 | 36141 ft | 427 kts | 292° |
| 2026-05-09 13:28 | 37.69220 | 45.11223 | 36139 ft | 429 kts | 301° |
| 2026-05-09 13:29 | 37.72886 | 45.05238 | 36138 ft | 432 kts | 309° |
| 2026-05-09 13:29 | 37.77333 | 45.00044 | 36147 ft | 437 kts | 317° |
| 2026-05-09 13:30 | 37.82131 | 44.95314 | 36142 ft | 438 kts | 318° |
| 2026-05-09 13:30 | 37.86966 | 44.90596 | 36151 ft | 438 kts | 318° |
| 2026-05-09 13:31 | 37.91791 | 44.85878 | 36160 ft | 438 kts | 318° |
| 2026-05-09 13:31 | 37.96589 | 44.81179 | 36140 ft | 438 kts | 318° |
| 2026-05-09 13:32 | 38.01417 | 44.76442 | 36166 ft | 438 kts | 318° |
| 2026-05-09 13:32 | 38.08667 | 44.69312 | 36170 ft | 440 kts | 318° |
| 2026-05-09 13:33 | 38.13498 | 44.64554 | 36167 ft | 438 kts | 318° |
| 2026-05-09 13:33 | 38.18316 | 44.59798 | 36178 ft | 438 kts | 318° |
| 2026-05-09 13:34 | 38.22992 | 44.54837 | 36184 ft | 436 kts | 313° |
| 2026-05-09 13:34 | 38.27014 | 44.49089 | 36184 ft | 433 kts | 304° |
| 2026-05-09 13:35 | 38.30255 | 44.42713 | 36192 ft | 431 kts | 296° |
| 2026-05-09 13:35 | 38.32728 | 44.35759 | 36196 ft | 431 kts | 290° |
| 2026-05-09 13:36 | 38.34896 | 44.28625 | 36192 ft | 430 kts | 290° |
| 2026-05-09 13:36 | 38.37041 | 44.21496 | 36194 ft | 430 kts | 290° |
| 2026-05-09 13:37 | 38.39180 | 44.14358 | 36200 ft | 430 kts | 290° |
| 2026-05-09 13:37 | 38.41319 | 44.07203 | 36245 ft | 433 kts | 290° |
| 2026-05-09 13:38 | 38.42380 | 44.03647 | 36549 ft | 432 kts | 290° |
| 2026-05-09 13:38 | 38.43448 | 44.00067 | 36947 ft | 430 kts | 290° |
| 2026-05-09 13:38 | 38.44510 | 43.96502 | 37272 ft | 430 kts | 289° |
| 2026-05-09 13:38 | 38.45572 | 43.92936 | 37511 ft | 430 kts | 289° |
| 2026-05-09 13:39 | 38.46637 | 43.89348 | 37742 ft | 431 kts | 289° |
| 2026-05-09 13:39 | 38.47698 | 43.85765 | 37988 ft | 431 kts | 289° |
| 2026-05-09 13:39 | 38.48761 | 43.82170 | 38185 ft | 431 kts | 289° |
| 2026-05-09 13:39 | 38.49822 | 43.78576 | 38198 ft | 431 kts | 289° |
| 2026-05-09 13:40 | 38.51939 | 43.71394 | 38212 ft | 432 kts | 289° |
| 2026-05-09 13:40 | 38.54053 | 43.64207 | 38218 ft | 432 kts | 289° |
| 2026-05-09 13:41 | 38.56159 | 43.57030 | 38217 ft | 433 kts | 289° |
| 2026-05-09 13:41 | 38.58270 | 43.49813 | 38217 ft | 433 kts | 289° |
| 2026-05-09 13:42 | 38.60379 | 43.42588 | 38219 ft | 433 kts | 289° |
| 2026-05-09 13:42 | 38.62478 | 43.35376 | 38220 ft | 433 kts | 289° |
| 2026-05-09 13:43 | 38.64578 | 43.28143 | 38218 ft | 433 kts | 289° |
| 2026-05-09 13:43 | 38.66675 | 43.20900 | 38221 ft | 433 kts | 289° |
| 2026-05-09 13:44 | 38.68765 | 43.13663 | 38214 ft | 433 kts | 288° |
| 2026-05-09 13:44 | 38.70854 | 43.06409 | 38216 ft | 434 kts | 288° |
| 2026-05-09 13:45 | 38.72736 | 42.99854 | 38211 ft | 434 kts | 288° |
| 2026-05-09 13:45 | 38.74986 | 42.92648 | 38211 ft | 435 kts | 292° |
| 2026-05-09 13:46 | 38.77654 | 42.85671 | 38213 ft | 436 kts | 294° |
| 2026-05-09 13:46 | 38.80384 | 42.78700 | 38212 ft | 438 kts | 294° |
| 2026-05-09 13:47 | 38.83102 | 42.71750 | 38209 ft | 437 kts | 294° |
| 2026-05-09 13:47 | 38.85831 | 42.64754 | 38203 ft | 437 kts | 294° |
| 2026-05-09 13:48 | 38.88559 | 42.57743 | 38198 ft | 439 kts | 294° |
| 2026-05-09 13:48 | 38.91289 | 42.50712 | 38192 ft | 439 kts | 294° |
| 2026-05-09 13:49 | 38.94015 | 42.43673 | 38188 ft | 439 kts | 294° |
| 2026-05-09 13:49 | 38.96734 | 42.36638 | 38182 ft | 439 kts | 294° |
| 2026-05-09 13:50 | 38.99454 | 42.29583 | 38177 ft | 440 kts | 294° |
| 2026-05-09 13:50 | 39.02170 | 42.22519 | 38166 ft | 440 kts | 294° |
| 2026-05-09 13:51 | 39.04873 | 42.15479 | 38167 ft | 440 kts | 294° |
| 2026-05-09 13:51 | 39.07583 | 42.08397 | 38169 ft | 441 kts | 294° |
| 2026-05-09 13:52 | 39.10298 | 42.01290 | 38165 ft | 442 kts | 294° |
| 2026-05-09 13:52 | 39.13005 | 41.94186 | 38165 ft | 442 kts | 294° |
| 2026-05-09 13:53 | 39.15710 | 41.87071 | 38172 ft | 442 kts | 294° |
| 2026-05-09 13:53 | 39.18423 | 41.79918 | 38168 ft | 444 kts | 294° |
| 2026-05-09 13:54 | 39.21137 | 41.72746 | 38168 ft | 444 kts | 294° |
| 2026-05-09 13:54 | 39.23846 | 41.65572 | 38167 ft | 444 kts | 294° |
| 2026-05-09 13:55 | 39.26534 | 41.58433 | 38179 ft | 445 kts | 294° |
| 2026-05-09 13:55 | 39.29245 | 41.51217 | 38176 ft | 446 kts | 294° |
| 2026-05-09 13:56 | 39.31807 | 41.43919 | 38172 ft | 445 kts | 290° |
| 2026-05-09 13:56 | 39.33935 | 41.36403 | 38182 ft | 445 kts | 288° |
| 2026-05-09 13:57 | 39.36013 | 41.28840 | 38176 ft | 446 kts | 288° |
| 2026-05-09 13:57 | 39.38088 | 41.21273 | 38182 ft | 446 kts | 288° |
| 2026-05-09 13:58 | 39.40160 | 41.13696 | 38181 ft | 446 kts | 288° |
| 2026-05-09 13:58 | 39.42217 | 41.06157 | 38187 ft | 447 kts | 288° |
| 2026-05-09 13:59 | 39.44282 | 40.98565 | 38184 ft | 447 kts | 288° |
| 2026-05-09 13:59 | 39.46348 | 40.90948 | 38182 ft | 447 kts | 288° |
| 2026-05-09 14:00 | 39.47715 | 40.85892 | 38183 ft | 447 kts | 288° |
| 2026-05-09 14:00 | 39.50447 | 40.75767 | 38183 ft | 447 kts | 288° |
| 2026-05-09 14:01 | 39.52497 | 40.68144 | 38180 ft | 447 kts | 288° |
| 2026-05-09 14:01 | 39.54539 | 40.60519 | 38177 ft | 447 kts | 288° |
| 2026-05-09 14:02 | 39.56654 | 40.52919 | 38175 ft | 448 kts | 289° |
| 2026-05-09 14:02 | 39.58911 | 40.45351 | 38161 ft | 449 kts | 289° |
| 2026-05-09 14:03 | 39.61165 | 40.37802 | 38162 ft | 449 kts | 289° |
| 2026-05-09 14:03 | 39.63418 | 40.30228 | 38157 ft | 449 kts | 289° |
| 2026-05-09 14:04 | 39.65650 | 40.22694 | 38167 ft | 450 kts | 289° |
| 2026-05-09 14:04 | 39.67895 | 40.15095 | 38160 ft | 451 kts | 289° |
| 2026-05-09 14:05 | 39.69775 | 40.08717 | 38160 ft | 451 kts | 289° |
| 2026-05-09 14:05 | 39.72016 | 40.01095 | 38158 ft | 451 kts | 289° |
| 2026-05-09 14:06 | 39.74250 | 39.93470 | 38156 ft | 452 kts | 289° |
| 2026-05-09 14:06 | 39.76488 | 39.85814 | 38149 ft | 452 kts | 289° |
| 2026-05-09 14:07 | 39.78719 | 39.78162 | 38154 ft | 452 kts | 289° |
| 2026-05-09 14:07 | 39.80943 | 39.70509 | 38139 ft | 452 kts | 289° |
| 2026-05-09 14:08 | 39.83154 | 39.62877 | 38150 ft | 453 kts | 289° |
| 2026-05-09 14:08 | 39.85421 | 39.55222 | 38135 ft | 453 kts | 291° |
| 2026-05-09 14:09 | 39.87984 | 39.47701 | 38136 ft | 453 kts | 292° |
| 2026-05-09 14:09 | 39.90580 | 39.40187 | 38136 ft | 454 kts | 292° |
| 2026-05-09 14:10 | 39.94442 | 39.28944 | 38124 ft | 455 kts | 292° |
| 2026-05-09 14:11 | 39.97022 | 39.21409 | 38140 ft | 454 kts | 292° |
| 2026-05-09 14:11 | 39.99601 | 39.13864 | 38126 ft | 455 kts | 292° |
| 2026-05-09 14:12 | 40.02179 | 39.06306 | 38125 ft | 456 kts | 292° |
| 2026-05-09 14:12 | 40.04754 | 38.98737 | 38116 ft | 456 kts | 292° |
| 2026-05-09 14:13 | 40.07325 | 38.91161 | 38121 ft | 456 kts | 292° |
| 2026-05-09 14:15 | 40.17555 | 38.60787 | 38099 ft | 457 kts | 292° |
| 2026-05-09 14:15 | 40.20108 | 38.53154 | 38093 ft | 457 kts | 292° |
| 2026-05-09 14:16 | 40.22658 | 38.45514 | 38088 ft | 457 kts | 292° |
| 2026-05-09 14:16 | 40.25201 | 38.37874 | 38095 ft | 457 kts | 292° |
| 2026-05-09 14:17 | 40.27748 | 38.30202 | 38086 ft | 458 kts | 292° |
| 2026-05-09 14:17 | 40.30295 | 38.22507 | 38086 ft | 458 kts | 292° |
| 2026-05-09 14:18 | 40.32827 | 38.14832 | 38081 ft | 458 kts | 291° |
| 2026-05-09 14:18 | 40.35206 | 38.07065 | 38082 ft | 458 kts | 290° |
| 2026-05-09 14:19 | 40.37524 | 37.99285 | 38076 ft | 457 kts | 290° |
| 2026-05-09 14:19 | 40.39850 | 37.91513 | 38079 ft | 457 kts | 290° |
| 2026-05-09 14:20 | 40.42175 | 37.83743 | 38073 ft | 457 kts | 290° |
| 2026-05-09 14:20 | 40.44499 | 37.75963 | 38079 ft | 457 kts | 290° |
| 2026-05-09 14:21 | 40.47962 | 37.64326 | 38081 ft | 457 kts | 290° |
| 2026-05-09 14:21 | 40.50275 | 37.56525 | 38074 ft | 457 kts | 290° |
| 2026-05-09 14:22 | 40.52583 | 37.48722 | 38081 ft | 458 kts | 290° |
| 2026-05-09 14:22 | 40.54888 | 37.40907 | 38077 ft | 458 kts | 290° |
| 2026-05-09 14:23 | 40.57192 | 37.33072 | 38073 ft | 458 kts | 290° |
| 2026-05-09 14:23 | 40.59476 | 37.25284 | 38078 ft | 458 kts | 290° |
| 2026-05-09 14:24 | 40.61768 | 37.17444 | 38073 ft | 459 kts | 290° |
| 2026-05-09 14:24 | 40.64063 | 37.09571 | 38068 ft | 459 kts | 290° |
| 2026-05-09 14:25 | 40.66352 | 37.01698 | 38064 ft | 459 kts | 290° |
| 2026-05-09 14:25 | 40.68631 | 36.93831 | 38067 ft | 459 kts | 290° |
| 2026-05-09 14:26 | 40.70909 | 36.85947 | 38061 ft | 459 kts | 290° |
| 2026-05-09 14:26 | 40.73167 | 36.78113 | 38061 ft | 459 kts | 290° |
| 2026-05-09 14:27 | 40.75432 | 36.70224 | 38061 ft | 459 kts | 290° |
| 2026-05-09 14:27 | 40.77695 | 36.62313 | 38057 ft | 460 kts | 290° |
| 2026-05-09 14:28 | 40.79953 | 36.54400 | 38061 ft | 460 kts | 290° |
| 2026-05-09 14:28 | 40.82210 | 36.46466 | 38062 ft | 460 kts | 290° |
| 2026-05-09 14:29 | 40.84457 | 36.38546 | 38063 ft | 460 kts | 289° |
| 2026-05-09 14:29 | 40.86705 | 36.30599 | 38058 ft | 461 kts | 289° |
| 2026-05-09 14:30 | 40.88949 | 36.22645 | 38053 ft | 461 kts | 289° |
| 2026-05-09 14:30 | 40.91185 | 36.14694 | 38052 ft | 461 kts | 289° |
| 2026-05-09 14:31 | 40.93400 | 36.06782 | 38052 ft | 461 kts | 289° |
| 2026-05-09 14:31 | 40.95628 | 35.98807 | 38046 ft | 461 kts | 289° |
| 2026-05-09 14:32 | 40.97851 | 35.90825 | 38045 ft | 461 kts | 289° |
| 2026-05-09 14:32 | 41.00069 | 35.82833 | 38040 ft | 461 kts | 289° |
| 2026-05-09 14:33 | 41.02284 | 35.74826 | 38034 ft | 462 kts | 289° |
| 2026-05-09 14:33 | 41.04482 | 35.66861 | 38038 ft | 462 kts | 289° |
| 2026-05-09 14:34 | 41.06687 | 35.58848 | 38036 ft | 462 kts | 289° |
| 2026-05-09 14:34 | 41.08890 | 35.50818 | 38033 ft | 462 kts | 289° |
| 2026-05-09 14:35 | 41.11082 | 35.42803 | 38042 ft | 461 kts | 289° |
| 2026-05-09 14:35 | 41.13257 | 35.34822 | 38040 ft | 464 kts | 289° |
| 2026-05-09 14:36 | 41.15473 | 35.26663 | 38033 ft | 474 kts | 289° |
| 2026-05-09 14:36 | 41.17726 | 35.18400 | 38047 ft | 475 kts | 295° |
| 2026-05-09 14:37 | 41.19827 | 35.15041 | 37462 ft | 482 kts | 319° |
| 2026-05-09 14:37 | 41.22307 | 35.12062 | 37233 ft | 476 kts | 311° |
| 2026-05-09 14:37 | 41.24300 | 35.08539 | 37051 ft | 480 kts | 299° |
| 2026-05-09 14:37 | 41.25707 | 35.04514 | 37079 ft | 482 kts | 287° |
| 2026-05-09 14:38 | 41.26462 | 35.00177 | 37244 ft | 481 kts | 276° |
| 2026-05-09 14:38 | 41.26545 | 34.95723 | 37365 ft | 482 kts | 265° |
| 2026-05-09 14:38 | 41.26196 | 34.91283 | 37514 ft | 482 kts | 267° |
| 2026-05-09 14:38 | 41.26351 | 34.86823 | 37653 ft | 483 kts | 278° |
| 2026-05-09 14:39 | 41.27152 | 34.82476 | 37838 ft | 483 kts | 287° |
| 2026-05-09 14:39 | 41.28250 | 34.78310 | 38018 ft | 483 kts | 289° |
| 2026-05-09 14:39 | 41.30600 | 34.69985 | 38040 ft | 477 kts | 289° |
| 2026-05-09 14:40 | 41.32870 | 34.61695 | 38043 ft | 475 kts | 289° |
| 2026-05-09 14:40 | 41.35075 | 34.53415 | 38046 ft | 474 kts | 289° |
| 2026-05-09 14:41 | 41.37262 | 34.45112 | 38050 ft | 475 kts | 288° |
| 2026-05-09 14:41 | 41.39444 | 34.36798 | 38053 ft | 474 kts | 288° |
| 2026-05-09 14:42 | 41.41599 | 34.28530 | 38053 ft | 476 kts | 288° |
| 2026-05-09 14:42 | 41.43759 | 34.20173 | 38056 ft | 476 kts | 288° |
| 2026-05-09 14:43 | 41.45915 | 34.11807 | 38056 ft | 476 kts | 288° |
| 2026-05-09 14:43 | 41.48072 | 34.03441 | 38061 ft | 476 kts | 288° |
| 2026-05-09 14:44 | 41.50227 | 33.95059 | 38060 ft | 477 kts | 288° |
| 2026-05-09 14:44 | 41.52375 | 33.86672 | 38056 ft | 477 kts | 288° |
| 2026-05-09 14:45 | 41.54515 | 33.78285 | 38054 ft | 477 kts | 288° |
| 2026-05-09 14:45 | 41.56649 | 33.69889 | 38053 ft | 476 kts | 288° |
| 2026-05-09 14:46 | 41.58762 | 33.61548 | 38048 ft | 476 kts | 288° |
| 2026-05-09 14:46 | 41.60882 | 33.53164 | 38048 ft | 476 kts | 288° |
| 2026-05-09 14:47 | 41.62997 | 33.44764 | 38044 ft | 476 kts | 288° |
| 2026-05-09 14:47 | 41.65103 | 33.36358 | 38038 ft | 475 kts | 288° |
| 2026-05-09 14:48 | 41.67198 | 33.27966 | 38039 ft | 475 kts | 288° |
| 2026-05-09 14:48 | 41.69289 | 33.19565 | 38031 ft | 475 kts | 288° |
| 2026-05-09 14:49 | 41.71372 | 33.11165 | 38031 ft | 474 kts | 288° |
| 2026-05-09 14:49 | 41.73429 | 33.02833 | 38029 ft | 473 kts | 288° |
| 2026-05-09 14:50 | 41.75496 | 32.94443 | 38021 ft | 473 kts | 288° |
| 2026-05-09 14:50 | 41.77554 | 32.86064 | 38020 ft | 473 kts | 287° |
| 2026-05-09 14:51 | 41.79607 | 32.77669 | 38016 ft | 472 kts | 287° |
| 2026-05-09 14:51 | 41.81642 | 32.69310 | 38017 ft | 471 kts | 287° |
| 2026-05-09 14:52 | 41.83675 | 32.60928 | 38015 ft | 471 kts | 287° |
| 2026-05-09 14:52 | 41.85357 | 32.53969 | 38015 ft | 471 kts | 287° |
| 2026-05-09 14:53 | 41.87704 | 32.44220 | 38013 ft | 472 kts | 287° |
| 2026-05-09 14:53 | 41.89708 | 32.35797 | 38012 ft | 473 kts | 287° |
| 2026-05-09 14:54 | 41.91403 | 32.28749 | 38013 ft | 473 kts | 287° |
| 2026-05-09 14:54 | 41.93410 | 32.20392 | 38016 ft | 473 kts | 287° |
| 2026-05-09 14:55 | 41.95412 | 32.11955 | 38015 ft | 473 kts | 287° |
| 2026-05-09 14:55 | 41.97403 | 32.03524 | 38016 ft | 473 kts | 287° |
| 2026-05-09 14:56 | 41.99394 | 31.95068 | 38015 ft | 472 kts | 287° |
| 2026-05-09 14:56 | 42.01362 | 31.86683 | 38020 ft | 473 kts | 287° |
| 2026-05-09 14:57 | 42.03341 | 31.78238 | 38018 ft | 473 kts | 287° |
| 2026-05-09 14:57 | 42.05314 | 31.69788 | 38021 ft | 473 kts | 287° |
| 2026-05-09 14:58 | 42.07282 | 31.61326 | 38023 ft | 473 kts | 286° |
| 2026-05-09 14:58 | 42.09243 | 31.52863 | 38026 ft | 473 kts | 286° |
| 2026-05-09 14:59 | 42.11199 | 31.44386 | 38027 ft | 473 kts | 286° |
| 2026-05-09 14:59 | 42.13134 | 31.35967 | 38030 ft | 473 kts | 286° |
| 2026-05-09 15:00 | 42.15073 | 31.27500 | 38031 ft | 473 kts | 286° |
| 2026-05-09 15:00 | 42.17008 | 31.19013 | 38035 ft | 472 kts | 286° |
| 2026-05-09 15:01 | 42.19893 | 31.06306 | 38032 ft | 472 kts | 286° |
| 2026-05-09 15:02 | 42.21813 | 30.97812 | 38032 ft | 472 kts | 286° |
| 2026-05-09 15:02 | 42.23721 | 30.89328 | 38035 ft | 472 kts | 286° |
| 2026-05-09 15:03 | 42.25628 | 30.80826 | 38032 ft | 472 kts | 286° |
| 2026-05-09 15:03 | 42.27515 | 30.72376 | 38029 ft | 472 kts | 286° |
| 2026-05-09 15:04 | 42.29407 | 30.63872 | 38030 ft | 472 kts | 286° |
| 2026-05-09 15:06 | 42.36899 | 30.29863 | 38037 ft | 472 kts | 286° |
| 2026-05-09 15:06 | 42.38756 | 30.21349 | 38029 ft | 470 kts | 286° |
| 2026-05-09 15:07 | 42.40606 | 30.12834 | 38023 ft | 470 kts | 286° |
| 2026-05-09 15:07 | 42.42445 | 30.04330 | 38026 ft | 470 kts | 285° |
| 2026-05-09 15:08 | 42.44372 | 29.95869 | 38024 ft | 469 kts | 289° |
| 2026-05-09 15:08 | 42.48288 | 29.83702 | 38017 ft | 470 kts | 297° |
| 2026-05-09 15:10 | 42.62631 | 29.53975 | 38016 ft | 472 kts | 303° |
| 2026-05-09 15:11 | 42.66307 | 29.46573 | 38015 ft | 472 kts | 303° |
| 2026-05-09 15:11 | 42.69975 | 29.39165 | 38012 ft | 471 kts | 303° |
| 2026-05-09 15:12 | 42.73611 | 29.31803 | 38012 ft | 471 kts | 303° |
| 2026-05-09 15:12 | 42.77262 | 29.24390 | 38015 ft | 471 kts | 303° |
| 2026-05-09 15:13 | 42.80905 | 29.16977 | 38012 ft | 471 kts | 303° |
| 2026-05-09 15:13 | 42.84550 | 29.09542 | 38010 ft | 471 kts | 303° |
| 2026-05-09 15:14 | 42.88186 | 29.02104 | 38009 ft | 471 kts | 303° |
| 2026-05-09 15:14 | 42.91817 | 28.94659 | 38010 ft | 471 kts | 302° |
| 2026-05-09 15:15 | 42.95438 | 28.87217 | 38011 ft | 469 kts | 302° |
| 2026-05-09 15:15 | 42.99025 | 28.79824 | 38006 ft | 469 kts | 302° |
| 2026-05-09 15:16 | 43.02631 | 28.72375 | 38007 ft | 469 kts | 302° |
| 2026-05-09 15:16 | 43.06232 | 28.64916 | 38008 ft | 469 kts | 302° |
| 2026-05-09 15:17 | 43.09818 | 28.57469 | 38007 ft | 468 kts | 302° |
| 2026-05-09 15:17 | 43.13394 | 28.50027 | 38004 ft | 467 kts | 302° |
| 2026-05-09 15:18 | 43.16966 | 28.42574 | 38005 ft | 467 kts | 302° |
| 2026-05-09 15:18 | 43.20534 | 28.35105 | 38003 ft | 466 kts | 302° |
| 2026-05-09 15:19 | 43.24089 | 28.27652 | 38005 ft | 466 kts | 302° |
| 2026-05-09 15:19 | 43.27640 | 28.20187 | 38001 ft | 466 kts | 302° |
| 2026-05-09 15:20 | 43.32933 | 28.09021 | 37985 ft | 465 kts | 302° |
| 2026-05-09 15:21 | 43.36461 | 28.01557 | 37982 ft | 465 kts | 302° |
| 2026-05-09 15:21 | 43.39987 | 27.94078 | 37978 ft | 465 kts | 302° |
| 2026-05-09 15:22 | 43.43502 | 27.86601 | 37969 ft | 465 kts | 302° |
| 2026-05-09 15:22 | 43.46990 | 27.79165 | 37980 ft | 466 kts | 302° |
| 2026-05-09 15:23 | 43.50504 | 27.71653 | 37977 ft | 466 kts | 302° |
| 2026-05-09 15:23 | 43.54018 | 27.64121 | 37973 ft | 467 kts | 302° |
| 2026-05-09 15:24 | 43.57534 | 27.56567 | 37977 ft | 466 kts | 302° |
| 2026-05-09 15:24 | 43.61031 | 27.49036 | 37969 ft | 465 kts | 302° |
| 2026-05-09 15:25 | 43.64493 | 27.41558 | 37968 ft | 465 kts | 302° |
| 2026-05-09 15:25 | 43.67972 | 27.34023 | 37959 ft | 465 kts | 302° |
| 2026-05-09 15:26 | 43.73174 | 27.22724 | 37960 ft | 463 kts | 301° |
| 2026-05-09 15:26 | 43.76636 | 27.15179 | 37962 ft | 463 kts | 301° |
| 2026-05-09 15:27 | 43.80085 | 27.07642 | 37964 ft | 463 kts | 301° |
| 2026-05-09 15:27 | 43.83502 | 27.00158 | 37964 ft | 462 kts | 301° |
| 2026-05-09 15:28 | 43.86934 | 26.92622 | 37963 ft | 461 kts | 301° |
| 2026-05-09 15:28 | 43.90358 | 26.85081 | 37961 ft | 461 kts | 301° |
| 2026-05-09 15:29 | 43.93775 | 26.77534 | 37968 ft | 462 kts | 301° |
| 2026-05-09 15:29 | 43.97205 | 26.69944 | 37971 ft | 463 kts | 301° |
| 2026-05-09 15:30 | 44.00626 | 26.62352 | 37966 ft | 463 kts | 301° |
| 2026-05-09 15:30 | 44.04045 | 26.54743 | 37960 ft | 463 kts | 301° |
| 2026-05-09 15:31 | 44.07439 | 26.47171 | 37984 ft | 463 kts | 301° |
| 2026-05-09 15:31 | 44.10848 | 26.39545 | 37987 ft | 463 kts | 301° |
| 2026-05-09 15:32 | 44.14255 | 26.31904 | 37968 ft | 463 kts | 301° |
| 2026-05-09 15:32 | 44.17628 | 26.24317 | 37992 ft | 463 kts | 301° |
| 2026-05-09 15:33 | 44.21023 | 26.16664 | 38001 ft | 463 kts | 301° |
| 2026-05-09 15:33 | 44.24406 | 26.09018 | 37981 ft | 463 kts | 300° |
| 2026-05-09 15:34 | 44.27785 | 26.01357 | 37984 ft | 463 kts | 300° |
| 2026-05-09 15:34 | 44.31159 | 25.93689 | 37992 ft | 463 kts | 300° |
| 2026-05-09 15:35 | 44.34530 | 25.86008 | 37998 ft | 462 kts | 300° |
| 2026-05-09 15:35 | 44.37867 | 25.78383 | 38001 ft | 462 kts | 300° |
| 2026-05-09 15:36 | 44.41222 | 25.70694 | 38005 ft | 464 kts | 300° |
| 2026-05-09 15:36 | 44.44589 | 25.62959 | 38011 ft | 464 kts | 300° |
| 2026-05-09 15:37 | 44.47947 | 25.55225 | 38012 ft | 464 kts | 300° |
| 2026-05-09 15:37 | 44.51302 | 25.47476 | 38012 ft | 464 kts | 300° |
| 2026-05-09 15:38 | 44.54648 | 25.39727 | 38010 ft | 464 kts | 300° |
| 2026-05-09 15:38 | 44.57969 | 25.32014 | 38013 ft | 464 kts | 300° |
| 2026-05-09 15:39 | 44.61306 | 25.24244 | 38014 ft | 464 kts | 300° |
| 2026-05-09 15:39 | 44.64635 | 25.16471 | 38018 ft | 464 kts | 300° |
| 2026-05-09 15:40 | 44.67939 | 25.08733 | 38015 ft | 464 kts | 300° |
| 2026-05-09 15:40 | 44.71258 | 25.00943 | 38015 ft | 464 kts | 300° |
| 2026-05-09 15:41 | 44.74566 | 24.93154 | 38016 ft | 462 kts | 300° |
| 2026-05-09 15:41 | 44.77862 | 24.85373 | 38019 ft | 462 kts | 300° |
| 2026-05-09 15:42 | 44.81150 | 24.77590 | 38017 ft | 462 kts | 299° |
| 2026-05-09 15:42 | 44.84435 | 24.69793 | 38012 ft | 462 kts | 299° |
| 2026-05-09 15:43 | 44.87695 | 24.62035 | 38013 ft | 462 kts | 299° |
| 2026-05-09 15:43 | 44.90967 | 24.54225 | 38012 ft | 462 kts | 299° |
| 2026-05-09 15:44 | 44.93706 | 24.47670 | 38015 ft | 462 kts | 299° |
| 2026-05-09 15:44 | 44.96951 | 24.39886 | 38013 ft | 462 kts | 299° |
| 2026-05-09 15:45 | 45.00210 | 24.32044 | 38018 ft | 462 kts | 299° |
| 2026-05-09 15:45 | 45.03459 | 24.24207 | 38018 ft | 462 kts | 299° |
| 2026-05-09 15:46 | 45.06711 | 24.16341 | 38016 ft | 462 kts | 299° |
| 2026-05-09 15:46 | 45.09950 | 24.08482 | 38022 ft | 462 kts | 299° |
| 2026-05-09 15:47 | 45.13186 | 24.00611 | 38026 ft | 462 kts | 299° |
| 2026-05-09 15:47 | 45.16401 | 23.92769 | 38027 ft | 462 kts | 299° |
| 2026-05-09 15:48 | 45.19651 | 23.84819 | 38027 ft | 462 kts | 299° |
| 2026-05-09 15:48 | 45.22852 | 23.76966 | 38037 ft | 462 kts | 299° |
| 2026-05-09 15:49 | 45.26065 | 23.69063 | 38029 ft | 461 kts | 298° |
| 2026-05-09 15:49 | 45.29268 | 23.61160 | 38029 ft | 460 kts | 298° |
| 2026-05-09 15:50 | 45.32462 | 23.53256 | 38036 ft | 461 kts | 298° |
| 2026-05-09 15:50 | 45.35641 | 23.45369 | 38040 ft | 462 kts | 298° |
| 2026-05-09 15:51 | 45.38839 | 23.37411 | 38046 ft | 462 kts | 298° |
| 2026-05-09 15:51 | 45.42027 | 23.29455 | 38047 ft | 462 kts | 298° |
| 2026-05-09 15:52 | 45.46811 | 23.17475 | 38038 ft | 462 kts | 298° |
| 2026-05-09 15:53 | 45.49984 | 23.09507 | 38048 ft | 460 kts | 298° |
| 2026-05-09 15:53 | 45.53115 | 23.01612 | 38045 ft | 459 kts | 298° |
| 2026-05-09 15:54 | 45.56257 | 22.93669 | 38047 ft | 459 kts | 298° |
| 2026-05-09 15:54 | 45.59392 | 22.85720 | 38050 ft | 459 kts | 298° |
| 2026-05-09 15:55 | 45.62502 | 22.77820 | 38046 ft | 457 kts | 297° |
| 2026-05-09 15:55 | 45.65610 | 22.69894 | 38045 ft | 457 kts | 297° |
| 2026-05-09 15:56 | 45.68718 | 22.61943 | 38043 ft | 457 kts | 297° |
| 2026-05-09 15:56 | 45.71817 | 22.53997 | 38041 ft | 457 kts | 297° |
| 2026-05-09 15:57 | 45.74895 | 22.46088 | 38041 ft | 455 kts | 297° |
| 2026-05-09 15:57 | 45.77992 | 22.38096 | 38037 ft | 455 kts | 297° |
| 2026-05-09 15:58 | 45.81045 | 22.30196 | 38034 ft | 456 kts | 297° |
| 2026-05-09 15:58 | 45.84120 | 22.22219 | 38029 ft | 456 kts | 297° |
| 2026-05-09 15:59 | 45.87185 | 22.14249 | 38033 ft | 455 kts | 297° |
| 2026-05-09 15:59 | 45.90241 | 22.06273 | 38024 ft | 455 kts | 297° |
| 2026-05-09 16:00 | 45.93293 | 21.98286 | 38024 ft | 455 kts | 297° |
| 2026-05-09 16:00 | 45.96316 | 21.90350 | 38024 ft | 455 kts | 296° |
| 2026-05-09 16:01 | 45.99354 | 21.82356 | 38022 ft | 455 kts | 296° |
| 2026-05-09 16:01 | 46.02383 | 21.74358 | 38019 ft | 455 kts | 296° |
| 2026-05-09 16:02 | 46.05410 | 21.66342 | 38014 ft | 455 kts | 296° |
| 2026-05-09 16:02 | 46.09940 | 21.54303 | 38009 ft | 455 kts | 296° |
| 2026-05-09 16:03 | 46.12940 | 21.46306 | 38007 ft | 455 kts | 296° |
| 2026-05-09 16:03 | 46.15957 | 21.38232 | 38006 ft | 455 kts | 296° |
| 2026-05-09 16:04 | 46.18943 | 21.30221 | 38005 ft | 455 kts | 296° |
| 2026-05-09 16:04 | 46.21947 | 21.22139 | 38017 ft | 455 kts | 296° |
| 2026-05-09 16:05 | 46.24941 | 21.14058 | 38003 ft | 455 kts | 296° |
| 2026-05-09 16:05 | 46.27774 | 21.05867 | 38008 ft | 455 kts | 293° |
| 2026-05-09 16:06 | 46.30456 | 20.97625 | 38003 ft | 454 kts | 293° |
| 2026-05-09 16:06 | 46.33142 | 20.89327 | 38005 ft | 454 kts | 293° |
| 2026-05-09 16:07 | 46.35822 | 20.81031 | 38006 ft | 454 kts | 293° |
| 2026-05-09 16:07 | 46.38496 | 20.72728 | 38004 ft | 453 kts | 293° |
| 2026-05-09 16:08 | 46.41164 | 20.64420 | 38002 ft | 453 kts | 293° |
| 2026-05-09 16:08 | 46.43821 | 20.56123 | 38004 ft | 453 kts | 293° |
| 2026-05-09 16:09 | 46.46458 | 20.47856 | 38008 ft | 453 kts | 293° |
| 2026-05-09 16:09 | 46.49106 | 20.39531 | 38004 ft | 453 kts | 292° |
| 2026-05-09 16:10 | 46.51745 | 20.31210 | 38003 ft | 453 kts | 292° |
| 2026-05-09 16:10 | 46.54379 | 20.22873 | 38001 ft | 453 kts | 292° |
| 2026-05-09 16:11 | 46.56993 | 20.14574 | 38003 ft | 453 kts | 292° |
| 2026-05-09 16:11 | 46.59615 | 20.06225 | 38013 ft | 453 kts | 292° |
| 2026-05-09 16:12 | 46.62226 | 19.97879 | 38016 ft | 453 kts | 292° |
| 2026-05-09 16:12 | 46.64833 | 19.89521 | 38014 ft | 453 kts | 292° |
| 2026-05-09 16:13 | 46.67436 | 19.81148 | 38014 ft | 453 kts | 292° |
| 2026-05-09 16:13 | 46.70025 | 19.72790 | 38011 ft | 451 kts | 292° |
| 2026-05-09 16:14 | 46.72605 | 19.64436 | 38022 ft | 451 kts | 292° |
| 2026-05-09 16:14 | 46.75167 | 19.56116 | 38029 ft | 452 kts | 292° |
| 2026-05-09 16:15 | 46.77738 | 19.47735 | 38020 ft | 452 kts | 292° |
| 2026-05-09 16:15 | 46.80300 | 19.39358 | 38024 ft | 451 kts | 292° |
| 2026-05-09 16:16 | 46.82852 | 19.30984 | 38023 ft | 451 kts | 292° |
| 2026-05-09 16:16 | 46.85399 | 19.22595 | 38022 ft | 451 kts | 292° |
| 2026-05-09 16:17 | 46.87945 | 19.14186 | 38024 ft | 454 kts | 292° |
| 2026-05-09 16:17 | 46.90506 | 19.05695 | 38023 ft | 457 kts | 292° |
| 2026-05-09 16:18 | 46.93065 | 18.97181 | 38020 ft | 457 kts | 292° |
| 2026-05-09 16:18 | 46.95620 | 18.88656 | 38021 ft | 457 kts | 291° |
| 2026-05-09 16:19 | 46.98171 | 18.80112 | 38025 ft | 457 kts | 291° |
| 2026-05-09 16:19 | 47.00712 | 18.71571 | 38026 ft | 456 kts | 291° |
| 2026-05-09 16:20 | 47.03242 | 18.63038 | 38024 ft | 456 kts | 291° |
| 2026-05-09 16:20 | 47.05765 | 18.54504 | 38028 ft | 456 kts | 291° |
| 2026-05-09 16:21 | 47.08283 | 18.45951 | 38029 ft | 456 kts | 291° |
| 2026-05-09 16:21 | 47.10782 | 18.37437 | 38034 ft | 456 kts | 291° |
| 2026-05-09 16:22 | 47.13295 | 18.28844 | 38034 ft | 458 kts | 291° |
| 2026-05-09 16:22 | 47.15806 | 18.20228 | 38038 ft | 458 kts | 291° |
| 2026-05-09 16:23 | 47.18311 | 18.11603 | 38039 ft | 458 kts | 291° |
| 2026-05-09 16:23 | 47.20808 | 18.02975 | 38041 ft | 458 kts | 291° |
| 2026-05-09 16:24 | 47.23295 | 17.94347 | 38064 ft | 457 kts | 291° |
| 2026-05-09 16:24 | 47.25762 | 17.85763 | 38051 ft | 458 kts | 291° |
| 2026-05-09 16:25 | 47.27844 | 17.78496 | 38055 ft | 459 kts | 291° |
| 2026-05-09 16:25 | 47.30772 | 17.68235 | 38059 ft | 459 kts | 291° |
| 2026-05-09 16:26 | 47.33242 | 17.59544 | 38060 ft | 460 kts | 291° |
| 2026-05-09 16:26 | 47.35718 | 17.50804 | 38056 ft | 460 kts | 291° |
| 2026-05-09 16:27 | 47.38185 | 17.42064 | 38061 ft | 460 kts | 291° |
| 2026-05-09 16:27 | 47.40627 | 17.33380 | 38058 ft | 460 kts | 291° |
| 2026-05-09 16:28 | 47.43079 | 17.24621 | 38059 ft | 461 kts | 291° |
| 2026-05-09 16:28 | 47.45529 | 17.15849 | 38059 ft | 461 kts | 291° |
| 2026-05-09 16:29 | 47.47975 | 17.07056 | 38067 ft | 461 kts | 291° |
| 2026-05-09 16:29 | 47.50416 | 16.98251 | 38069 ft | 461 kts | 291° |
| 2026-05-09 16:30 | 47.52829 | 16.89502 | 38082 ft | 460 kts | 291° |
| 2026-05-09 16:30 | 47.55247 | 16.80713 | 38075 ft | 459 kts | 291° |
| 2026-05-09 16:31 | 47.57637 | 16.71939 | 38073 ft | 459 kts | 290° |
| 2026-05-09 16:31 | 47.59961 | 16.63106 | 38072 ft | 459 kts | 290° |
| 2026-05-09 16:32 | 47.61884 | 16.55764 | 38080 ft | 459 kts | 290° |
| 2026-05-09 16:32 | 47.64196 | 16.46919 | 38082 ft | 459 kts | 290° |
| 2026-05-09 16:33 | 47.66498 | 16.38084 | 38081 ft | 459 kts | 290° |
| 2026-05-09 16:33 | 47.69172 | 16.27790 | 38087 ft | 459 kts | 290° |
| 2026-05-09 16:34 | 47.71080 | 16.20413 | 38088 ft | 459 kts | 290° |
| 2026-05-09 16:34 | 47.73361 | 16.11568 | 38094 ft | 456 kts | 290° |
| 2026-05-09 16:35 | 47.75625 | 16.02752 | 38092 ft | 455 kts | 290° |
| 2026-05-09 16:35 | 47.77880 | 15.93940 | 38094 ft | 455 kts | 290° |
| 2026-05-09 16:36 | 47.82355 | 15.76354 | 38091 ft | 455 kts | 290° |
| 2026-05-09 16:37 | 47.84594 | 15.67505 | 38097 ft | 456 kts | 289° |
| 2026-05-09 16:37 | 47.86827 | 15.58635 | 38094 ft | 456 kts | 289° |
| 2026-05-09 16:38 | 47.89052 | 15.49770 | 38090 ft | 456 kts | 289° |
| 2026-05-09 16:38 | 47.91272 | 15.40891 | 38085 ft | 456 kts | 289° |
| 2026-05-09 16:39 | 47.93462 | 15.32090 | 38092 ft | 454 kts | 289° |
| 2026-05-09 16:39 | 47.95655 | 15.23252 | 38081 ft | 454 kts | 289° |
| 2026-05-09 16:40 | 47.97842 | 15.14400 | 38082 ft | 453 kts | 289° |
| 2026-05-09 16:42 | 48.04948 | 14.78371 | 38073 ft | 453 kts | 277° |
| 2026-05-09 16:42 | 48.05460 | 14.68947 | 38059 ft | 454 kts | 272° |
| 2026-05-09 16:43 | 48.05522 | 14.64231 | 37786 ft | 448 kts | 272° |
| 2026-05-09 16:43 | 48.05566 | 14.59665 | 37506 ft | 438 kts | 272° |
| 2026-05-09 16:43 | 48.05604 | 14.55144 | 37231 ft | 430 kts | 272° |
| 2026-05-09 16:43 | 48.05640 | 14.50699 | 36963 ft | 424 kts | 272° |
| 2026-05-09 16:44 | 48.05674 | 14.46290 | 36699 ft | 423 kts | 272° |
| 2026-05-09 16:44 | 48.05705 | 14.41882 | 36394 ft | 422 kts | 272° |
| 2026-05-09 16:44 | 48.05733 | 14.37477 | 36021 ft | 422 kts | 272° |
| 2026-05-09 16:44 | 48.05759 | 14.33084 | 35593 ft | 422 kts | 272° |
| 2026-05-09 16:45 | 48.05783 | 14.28687 | 35090 ft | 422 kts | 272° |
| 2026-05-09 16:45 | 48.05801 | 14.24339 | 34552 ft | 423 kts | 272° |
| 2026-05-09 16:45 | 48.05815 | 14.19927 | 33990 ft | 423 kts | 272° |
| 2026-05-09 16:45 | 48.05829 | 14.15525 | 33321 ft | 423 kts | 272° |
| 2026-05-09 16:46 | 48.05840 | 14.11122 | 32618 ft | 425 kts | 272° |
| 2026-05-09 16:46 | 48.05851 | 14.06687 | 31910 ft | 427 kts | 271° |
| 2026-05-09 16:46 | 48.05861 | 14.02230 | 31238 ft | 428 kts | 271° |
| 2026-05-09 16:46 | 48.05869 | 13.97761 | 30556 ft | 430 kts | 271° |
| 2026-05-09 16:47 | 48.05875 | 13.93273 | 29823 ft | 433 kts | 271° |
| 2026-05-09 16:47 | 48.05879 | 13.88760 | 29051 ft | 434 kts | 271° |
| 2026-05-09 16:47 | 48.05881 | 13.84233 | 28315 ft | 434 kts | 271° |
| 2026-05-09 16:47 | 48.05882 | 13.79760 | 27637 ft | 434 kts | 271° |
| 2026-05-09 16:48 | 48.05880 | 13.75255 | 27211 ft | 428 kts | 271° |
| 2026-05-09 16:48 | 48.05876 | 13.70811 | 26663 ft | 426 kts | 271° |
| 2026-05-09 16:48 | 48.05870 | 13.66393 | 26153 ft | 423 kts | 271° |
| 2026-05-09 16:48 | 48.05865 | 13.62007 | 25671 ft | 420 kts | 271° |
| 2026-05-09 16:49 | 48.05860 | 13.57640 | 25216 ft | 417 kts | 272° |
| 2026-05-09 16:49 | 48.05931 | 13.53323 | 24754 ft | 413 kts | 274° |
| 2026-05-09 16:49 | 48.06127 | 13.49038 | 24324 ft | 410 kts | 276° |
| 2026-05-09 16:50 | 48.06582 | 13.40574 | 23402 ft | 406 kts | 276° |
| 2026-05-09 16:50 | 48.06808 | 13.36376 | 22922 ft | 403 kts | 276° |
| 2026-05-09 16:50 | 48.07030 | 13.32214 | 22478 ft | 399 kts | 276° |
| 2026-05-09 16:50 | 48.07247 | 13.28094 | 22030 ft | 396 kts | 276° |
| 2026-05-09 16:51 | 48.07462 | 13.23991 | 21591 ft | 393 kts | 276° |
| 2026-05-09 16:51 | 48.07682 | 13.19837 | 21160 ft | 407 kts | 276° |
| 2026-05-09 16:51 | 48.07901 | 13.15651 | 20711 ft | 410 kts | 276° |
| 2026-05-09 16:51 | 48.08120 | 13.11379 | 20271 ft | 411 kts | 275° |
| 2026-05-09 16:52 | 48.08338 | 13.07104 | 19821 ft | 412 kts | 275° |
| 2026-05-09 16:52 | 48.08555 | 13.02813 | 19378 ft | 413 kts | 275° |
| 2026-05-09 16:52 | 48.08777 | 12.98534 | 18939 ft | 413 kts | 277° |
| 2026-05-09 16:52 | 48.09402 | 12.94363 | 18421 ft | 408 kts | 289° |
| 2026-05-09 16:53 | 48.10459 | 12.90442 | 17831 ft | 404 kts | 294° |
| 2026-05-09 16:53 | 48.11603 | 12.86608 | 17169 ft | 402 kts | 294° |
| 2026-05-09 16:53 | 48.12763 | 12.82811 | 16626 ft | 398 kts | 294° |
| 2026-05-09 16:53 | 48.13904 | 12.79100 | 16441 ft | 385 kts | 295° |
| 2026-05-09 16:54 | 48.15010 | 12.75506 | 16216 ft | 374 kts | 295° |
| 2026-05-09 16:54 | 48.16072 | 12.72054 | 16025 ft | 363 kts | 295° |
| 2026-05-09 16:54 | 48.17120 | 12.68650 | 15828 ft | 353 kts | 295° |
| 2026-05-09 16:54 | 48.18133 | 12.65360 | 15638 ft | 343 kts | 295° |
| 2026-05-09 16:55 | 48.19121 | 12.62156 | 15454 ft | 333 kts | 295° |
| 2026-05-09 16:55 | 48.20081 | 12.59042 | 14878 ft | 324 kts | 295° |
| 2026-05-09 16:55 | 48.21023 | 12.55999 | 14261 ft | 318 kts | 295° |
| 2026-05-09 16:55 | 48.21940 | 12.53049 | 13894 ft | 304 kts | 295° |
| 2026-05-09 16:56 | 48.22819 | 12.50228 | 13474 ft | 293 kts | 295° |
| 2026-05-09 16:56 | 48.23676 | 12.47467 | 12824 ft | 290 kts | 295° |
| 2026-05-09 16:56 | 48.24522 | 12.44730 | 12193 ft | 288 kts | 295° |
| 2026-05-09 16:56 | 48.25361 | 12.42002 | 11544 ft | 286 kts | 295° |
| 2026-05-09 16:57 | 48.26183 | 12.39311 | 11148 ft | 282 kts | 295° |
| 2026-05-09 16:57 | 48.27002 | 12.36621 | 11040 ft | 284 kts | 295° |
| 2026-05-09 16:57 | 48.27831 | 12.33885 | 11045 ft | 287 kts | 295° |
| 2026-05-09 16:57 | 48.28658 | 12.31155 | 11082 ft | 287 kts | 295° |
| 2026-05-09 16:58 | 48.29486 | 12.28423 | 11054 ft | 286 kts | 294° |
| 2026-05-09 16:58 | 48.30308 | 12.25704 | 11047 ft | 284 kts | 294° |
| 2026-05-09 16:58 | 48.30936 | 12.22935 | 11022 ft | 285 kts | 277° |
| 2026-05-09 16:58 | 48.30938 | 12.19945 | 11046 ft | 287 kts | 266° |
| 2026-05-09 16:59 | 48.30758 | 12.16954 | 11043 ft | 287 kts | 265° |
| 2026-05-09 16:59 | 48.30543 | 12.13954 | 11043 ft | 286 kts | 264° |
| 2026-05-09 16:59 | 48.30322 | 12.10977 | 11042 ft | 284 kts | 264° |
| 2026-05-09 16:59 | 48.30106 | 12.08097 | 11036 ft | 270 kts | 264° |
| 2026-05-09 17:00 | 48.29899 | 12.05370 | 11027 ft | 254 kts | 264° |
| 2026-05-09 17:00 | 48.29701 | 12.02764 | 11033 ft | 251 kts | 264° |
| 2026-05-09 17:00 | 48.29504 | 12.00139 | 11039 ft | 251 kts | 264° |
| 2026-05-09 17:00 | 48.29307 | 11.97536 | 11039 ft | 251 kts | 264° |
| 2026-05-09 17:01 | 48.29116 | 11.94949 | 10879 ft | 248 kts | 264° |
| 2026-05-09 17:01 | 48.28922 | 11.92356 | 10507 ft | 249 kts | 264° |
| 2026-05-09 17:01 | 48.28724 | 11.89776 | 10195 ft | 248 kts | 264° |
| 2026-05-09 17:01 | 48.28529 | 11.87199 | 9859 ft | 248 kts | 264° |
| 2026-05-09 17:02 | 48.28331 | 11.84625 | 9520 ft | 247 kts | 264° |
| 2026-05-09 17:02 | 48.28103 | 11.82064 | 9158 ft | 247 kts | 261° |
| 2026-05-09 17:02 | 48.27796 | 11.79552 | 8808 ft | 248 kts | 259° |
| 2026-05-09 17:02 | 48.27470 | 11.77006 | 8461 ft | 248 kts | 259° |
| 2026-05-09 17:03 | 48.27147 | 11.74454 | 8134 ft | 248 kts | 259° |
| 2026-05-09 17:04 | 48.25062 | 11.56485 | 5897 ft | 249 kts | 259° |
| 2026-05-09 17:05 | 48.24776 | 11.53914 | 5592 ft | 249 kts | 259° |
| 2026-05-09 17:05 | 48.24486 | 11.51360 | 5311 ft | 248 kts | 259° |
| 2026-05-09 17:05 | 48.24195 | 11.48799 | 5014 ft | 248 kts | 259° |
| 2026-05-09 17:05 | 48.23904 | 11.46258 | 4725 ft | 247 kts | 259° |
| 2026-05-09 17:06 | 48.23612 | 11.43725 | 4405 ft | 246 kts | 259° |
| 2026-05-09 17:06 | 48.23358 | 11.41213 | 4122 ft | 246 kts | 268° |
| 2026-05-09 17:06 | 48.23744 | 11.38747 | 3985 ft | 246 kts | 302° |
| 2026-05-09 17:06 | 48.24931 | 11.36939 | 3985 ft | 246 kts | 334° |
| 2026-05-09 17:07 | 48.26542 | 11.36271 | 3992 ft | 240 kts | 5° |
| 2026-05-09 17:07 | 48.27099 | 11.36348 | 3991 ft | 236 kts | 16° |
| 2026-05-09 17:07 | 48.29201 | 11.38452 | 3995 ft | 228 kts | 51° |
| 2026-05-09 17:07 | 48.30218 | 11.40296 | 3991 ft | 227 kts | 54° |
| 2026-05-09 17:08 | 48.31102 | 11.42233 | 3989 ft | 225 kts | 66° |
| 2026-05-09 17:08 | 48.31863 | 11.46558 | 3992 ft | 204 kts | 81° |
| 2026-05-09 17:08 | 48.32071 | 11.48652 | 4027 ft | 202 kts | 83° |
| 2026-05-09 17:09 | 48.32247 | 11.50771 | 3998 ft | 204 kts | 84° |
| 2026-05-09 17:09 | 48.32406 | 11.52864 | 3980 ft | 195 kts | 84° |
| 2026-05-09 17:09 | 48.32547 | 11.54803 | 3962 ft | 177 kts | 85° |
| 2026-05-09 17:09 | 48.32676 | 11.56598 | 3919 ft | 170 kts | 85° |
| 2026-05-09 17:10 | 48.32803 | 11.58370 | 3693 ft | 169 kts | 85° |
| 2026-05-09 17:10 | 48.32932 | 11.60116 | 3477 ft | 169 kts | 85° |
| 2026-05-09 17:10 | 48.33063 | 11.61859 | 3259 ft | 163 kts | 85° |
| 2026-05-09 17:10 | 48.33189 | 11.63531 | 3036 ft | 160 kts | 84° |
| 2026-05-09 17:11 | 48.33317 | 11.65196 | 2847 ft | 159 kts | 85° |
| 2026-05-09 17:11 | 48.33442 | 11.66850 | 2626 ft | 159 kts | 85° |
| 2026-05-09 17:11 | 48.33565 | 11.68494 | 2407 ft | 158 kts | 84° |
| 2026-05-09 17:11 | 48.33694 | 11.70144 | 2187 ft | 158 kts | 83° |
| 2026-05-09 17:12 | 48.33830 | 11.71793 | 1984 ft | 158 kts | 84° |
| 2026-05-09 17:12 | 48.33958 | 11.73431 | 1738 ft | 156 kts | 85° |
| 2026-05-09 17:12 | 48.34066 | 11.75026 | 1533 ft | 154 kts | 85° |
| 2026-05-09 17:12 | 48.34180 | 11.76561 | 1473 ft | 127 kts | 83° |
| 2026-05-09 17:13 | 48.34256 | 11.77582 | 1476 ft | 72 kts | 83° |
| 2026-05-09 17:13 | 48.34296 | 11.78090 | 1472 ft | 32 kts | 83° |
| 2026-05-09 17:13 | 48.34356 | 11.78308 | 1471 ft | 16 kts | 53° |
| 2026-05-09 17:13 | 48.34428 | 11.78453 | 1469 ft | 18 kts | 52° |
| 2026-05-09 17:14 | 48.34504 | 11.78605 | 1463 ft | 13 kts | 53° |
| 2026-05-09 17:14 | 48.34543 | 11.78685 | 1465 ft | 8 kts | 53° |
| 2026-05-09 17:14 | 48.34581 | 11.78760 | 1465 ft | 11 kts | 52° |
| 2026-05-09 17:14 | 48.34622 | 11.78866 | 1465 ft | 13 kts | 71° |
| 2026-05-09 17:15 | 48.34633 | 11.78931 | 1469 ft | 3 kts | 80° |
| 2026-05-09 17:15 | 48.34638 | 11.78978 | 1466 ft | 6 kts | 82° |
| 2026-05-09 17:15 | 48.34643 | 11.79051 | 1474 ft | 9 kts | 83° |
| 2026-05-09 17:15 | 48.34653 | 11.79171 | 1464 ft | 14 kts | 84° |
| 2026-05-09 17:16 | 48.34665 | 11.79331 | 1475 ft | 17 kts | 83° |
| 2026-05-09 17:17 | 48.34784 | 11.79704 | 1464 ft | 0 kts | 350° |
| 2026-05-09 17:18 | 48.34801 | 11.79702 | 1469 ft | 0 kts | 355° |
| 2026-05-09 17:19 | 48.34809 | 11.79701 | 1469 ft | 3 kts | 355° |
| 2026-05-09 17:19 | 48.34846 | 11.79696 | 1465 ft | 8 kts | 354° |
| 2026-05-09 17:19 | 48.34912 | 11.79685 | 1474 ft | 11 kts | 353° |
| 2026-05-09 17:19 | 48.34970 | 11.79675 | 1469 ft | 7 kts | 353° |
| 2026-05-09 17:20 | 48.35034 | 11.79681 | 1463 ft | 10 kts | 29° |
| 2026-05-09 17:20 | 48.35066 | 11.79792 | 1474 ft | 13 kts | 82° |
| 2026-05-09 17:20 | 48.35077 | 11.79936 | 1473 ft | 10 kts | 83° |
| 2026-05-09 17:20 | 48.35085 | 11.80023 | 1464 ft | 0 kts | 83° |
| 2026-05-09 17:21 | 48.35086 | 11.80036 | 1466 ft | 2 kts | 83° |
| 2026-05-09 17:21 | 48.35087 | 11.80050 | 1465 ft | 0 kts | 83° |
| 2026-05-09 17:21 | 48.35088 | 11.80058 | 1466 ft | 0 kts | 83° |
| 2026-05-09 17:21 | 48.35088 | 11.80068 | 1468 ft | 2 kts | 83° |
| 2026-05-09 17:22 | 48.35090 | 11.80084 | 1470 ft | 1 kts | 83° |
| 2026-05-09 17:22 | 48.35091 | 11.80104 | 1474 ft | 3 kts | 83° |
| 2026-05-09 17:22 | 48.35092 | 11.80114 | 1472 ft | 0 kts | 83° |
| 2026-05-09 17:22 | 48.35094 | 11.80137 | 1472 ft | 7 kts | 83° |
| 2026-05-09 17:23 | 48.35102 | 11.80230 | 1470 ft | 10 kts | 83° |
| 2026-05-09 17:23 | 48.35111 | 11.80345 | 1470 ft | 9 kts | 83° |
| 2026-05-09 17:23 | 48.35081 | 11.80423 | 1467 ft | 9 kts | 160° |
| 2026-05-09 17:23 | 48.35051 | 11.80433 | 1469 ft | 0 kts | 169° |
| 2026-05-09 17:25 | 48.35047 | 11.80434 | 1469 ft | 0 kts | 170° |